sensor_id;sensor_type;location;lat;lon;timestamp;P1;durP1;ratioP1;P2;durP2;ratioP2
63714;SDS011;49858;48.956;9.076;2023-11-21T00:00:04;3.05;;;1.42;;
63714;SDS011;49858;48.956;9.076;2023-11-21T00:02:39;4.32;;;1.08;;
63714;SDS011;49858;48.956;9.076;2023-11-21T00:05:08;2.60;;;1.40;;
63714;SDS011;49858;48.956;9.076;2023-11-21T00:07:36;1.27;;;0.77;;
63714;SDS011;49858;48.956;9.076;2023-11-21T00:10:05;3.03;;;1.23;;
63714;SDS011;49858;48.956;9.076;2023-11-21T00:12:34;5.68;;;1.40;;
63714;SDS011;49858;48.956;9.076;2023-11-21T00:15:02;1.50;;;0.80;;
63714;SDS011;49858;48.956;9.076;2023-11-21T00:17:32;6.75;;;1.20;;
63714;SDS011;49858;48.956;9.076;2023-11-21T00:20:01;2.55;;;1.17;;
63714;SDS011;49858;48.956;9.076;2023-11-21T00:22:32;0.90;;;0.77;;
63714;SDS011;49858;48.956;9.076;2023-11-21T00:25:01;1.30;;;0.95;;
63714;SDS011;49858;48.956;9.076;2023-11-21T00:27:30;4.78;;;1.17;;
63714;SDS011;49858;48.956;9.076;2023-11-21T00:29:57;3.95;;;1.23;;
63714;SDS011;49858;48.956;9.076;2023-11-21T00:32:25;3.40;;;1.05;;
63714;SDS011;49858;48.956;9.076;2023-11-21T00:34:53;1.20;;;0.90;;
63714;SDS011;49858;48.956;9.076;2023-11-21T00:37:23;1.00;;;0.80;;
63714;SDS011;49858;48.956;9.076;2023-11-21T00:39:51;2.13;;;0.80;;
63714;SDS011;49858;48.956;9.076;2023-11-21T00:42:19;3.60;;;1.15;;
63714;SDS011;49858;48.956;9.076;2023-11-21T00:44:48;3.25;;;1.20;;
63714;SDS011;49858;48.956;9.076;2023-11-21T00:47:15;2.85;;;0.95;;
63714;SDS011;49858;48.956;9.076;2023-11-21T00:49:44;5.32;;;1.50;;
63714;SDS011;49858;48.956;9.076;2023-11-21T00:52:11;4.32;;;1.55;;
63714;SDS011;49858;48.956;9.076;2023-11-21T00:54:41;2.33;;;1.48;;
63714;SDS011;49858;48.956;9.076;2023-11-21T00:57:09;6.35;;;1.35;;
63714;SDS011;49858;48.956;9.076;2023-11-21T00:59:38;0.73;;;0.60;;
63714;SDS011;49858;48.956;9.076;2023-11-21T01:02:06;1.90;;;1.17;;
63714;SDS011;49858;48.956;9.076;2023-11-21T01:04:36;1.70;;;0.70;;
63714;SDS011;49858;48.956;9.076;2023-11-21T01:07:05;0.75;;;0.60;;
63714;SDS011;49858;48.956;9.076;2023-11-21T01:09:33;0.80;;;0.70;;
63714;SDS011;49858;48.956;9.076;2023-11-21T01:12:02;1.10;;;0.77;;
63714;SDS011;49858;48.956;9.076;2023-11-21T01:14:31;1.02;;;0.60;;
63714;SDS011;49858;48.956;9.076;2023-11-21T01:16:58;0.35;;;0.35;;
63714;SDS011;49858;48.956;9.076;2023-11-21T01:19:26;2.20;;;1.48;;
63714;SDS011;49858;48.956;9.076;2023-11-21T01:21:56;1.33;;;1.20;;
63714;SDS011;49858;48.956;9.076;2023-11-21T01:24:24;7.13;;;1.48;;
63714;SDS011;49858;48.956;9.076;2023-11-21T01:26:52;2.13;;;1.20;;
63714;SDS011;49858;48.956;9.076;2023-11-21T01:29:21;2.45;;;1.40;;
63714;SDS011;49858;48.956;9.076;2023-11-21T01:31:49;2.10;;;1.23;;
63714;SDS011;49858;48.956;9.076;2023-11-21T01:34:18;4.25;;;1.00;;
63714;SDS011;49858;48.956;9.076;2023-11-21T01:36:47;2.35;;;1.20;;
63714;SDS011;49858;48.956;9.076;2023-11-21T01:39:15;3.83;;;1.25;;
63714;SDS011;49858;48.956;9.076;2023-11-21T01:41:49;2.47;;;1.15;;
63714;SDS011;49858;48.956;9.076;2023-11-21T01:44:18;1.23;;;0.90;;
63714;SDS011;49858;48.956;9.076;2023-11-21T01:46:48;2.70;;;1.23;;
63714;SDS011;49858;48.956;9.076;2023-11-21T01:49:16;1.92;;;1.30;;
63714;SDS011;49858;48.956;9.076;2023-11-21T01:51:45;2.63;;;1.42;;
63714;SDS011;49858;48.956;9.076;2023-11-21T01:54:15;4.97;;;1.30;;
63714;SDS011;49858;48.956;9.076;2023-11-21T01:56:45;4.05;;;1.20;;
63714;SDS011;49858;48.956;9.076;2023-11-21T01:59:15;3.08;;;1.05;;
63714;SDS011;49858;48.956;9.076;2023-11-21T02:01:48;2.55;;;0.95;;
63714;SDS011;49858;48.956;9.076;2023-11-21T02:04:18;3.70;;;1.40;;
63714;SDS011;49858;48.956;9.076;2023-11-21T02:06:46;4.38;;;1.27;;
63714;SDS011;49858;48.956;9.076;2023-11-21T02:09:14;2.63;;;1.17;;
63714;SDS011;49858;48.956;9.076;2023-11-21T02:11:42;2.72;;;1.20;;
63714;SDS011;49858;48.956;9.076;2023-11-21T02:14:10;3.28;;;1.40;;
63714;SDS011;49858;48.956;9.076;2023-11-21T02:16:40;2.17;;;0.98;;
63714;SDS011;49858;48.956;9.076;2023-11-21T02:19:15;1.80;;;1.00;;
63714;SDS011;49858;48.956;9.076;2023-11-21T02:21:46;3.33;;;1.10;;
63714;SDS011;49858;48.956;9.076;2023-11-21T02:24:17;4.22;;;2.92;;
63714;SDS011;49858;48.956;9.076;2023-11-21T02:26:46;1.08;;;0.80;;
63714;SDS011;49858;48.956;9.076;2023-11-21T02:29:14;1.48;;;1.02;;
63714;SDS011;49858;48.956;9.076;2023-11-21T02:31:45;3.80;;;2.00;;
63714;SDS011;49858;48.956;9.076;2023-11-21T02:34:15;1.40;;;0.93;;
63714;SDS011;49858;48.956;9.076;2023-11-21T02:36:43;4.20;;;1.30;;
63714;SDS011;49858;48.956;9.076;2023-11-21T02:39:11;1.60;;;1.05;;
63714;SDS011;49858;48.956;9.076;2023-11-21T02:41:41;4.03;;;1.00;;
63714;SDS011;49858;48.956;9.076;2023-11-21T02:44:10;11.68;;;1.50;;
63714;SDS011;49858;48.956;9.076;2023-11-21T02:46:38;4.20;;;1.40;;
63714;SDS011;49858;48.956;9.076;2023-11-21T02:49:06;1.70;;;1.25;;
63714;SDS011;49858;48.956;9.076;2023-11-21T02:51:36;2.13;;;1.10;;
63714;SDS011;49858;48.956;9.076;2023-11-21T02:54:05;4.07;;;1.40;;
63714;SDS011;49858;48.956;9.076;2023-11-21T02:56:35;3.47;;;1.50;;
63714;SDS011;49858;48.956;9.076;2023-11-21T02:59:04;3.25;;;1.02;;
63714;SDS011;49858;48.956;9.076;2023-11-21T03:01:32;1.67;;;1.42;;
63714;SDS011;49858;48.956;9.076;2023-11-21T03:04:00;2.97;;;1.00;;
63714;SDS011;49858;48.956;9.076;2023-11-21T03:06:28;2.13;;;1.20;;
63714;SDS011;49858;48.956;9.076;2023-11-21T03:08:56;4.07;;;1.17;;
63714;SDS011;49858;48.956;9.076;2023-11-21T03:11:24;1.90;;;1.13;;
63714;SDS011;49858;48.956;9.076;2023-11-21T03:13:51;0.32;;;0.32;;
63714;SDS011;49858;48.956;9.076;2023-11-21T03:16:21;2.13;;;1.10;;
63714;SDS011;49858;48.956;9.076;2023-11-21T03:18:49;1.80;;;1.25;;
63714;SDS011;49858;48.956;9.076;2023-11-21T03:21:17;3.38;;;1.70;;
63714;SDS011;49858;48.956;9.076;2023-11-21T03:23:45;2.88;;;1.85;;
63714;SDS011;49858;48.956;9.076;2023-11-21T03:26:13;4.40;;;1.65;;
63714;SDS011;49858;48.956;9.076;2023-11-21T03:28:41;2.47;;;1.50;;
63714;SDS011;49858;48.956;9.076;2023-11-21T03:31:09;3.88;;;1.52;;
63714;SDS011;49858;48.956;9.076;2023-11-21T03:33:38;2.95;;;1.48;;
63714;SDS011;49858;48.956;9.076;2023-11-21T03:36:06;3.38;;;2.03;;
63714;SDS011;49858;48.956;9.076;2023-11-21T03:38:35;7.90;;;2.45;;
63714;SDS011;49858;48.956;9.076;2023-11-21T03:41:04;3.10;;;2.20;;
63714;SDS011;49858;48.956;9.076;2023-11-21T03:43:32;4.28;;;1.77;;
63714;SDS011;49858;48.956;9.076;2023-11-21T03:46:00;3.97;;;1.67;;
63714;SDS011;49858;48.956;9.076;2023-11-21T03:48:28;2.50;;;2.10;;
63714;SDS011;49858;48.956;9.076;2023-11-21T03:50:58;7.25;;;1.73;;
63714;SDS011;49858;48.956;9.076;2023-11-21T03:53:25;2.65;;;1.30;;
63714;SDS011;49858;48.956;9.076;2023-11-21T03:55:53;5.18;;;1.42;;
63714;SDS011;49858;48.956;9.076;2023-11-21T03:58:21;2.72;;;1.10;;
63714;SDS011;49858;48.956;9.076;2023-11-21T04:00:49;1.92;;;1.40;;
63714;SDS011;49858;48.956;9.076;2023-11-21T04:03:17;2.53;;;1.30;;
63714;SDS011;49858;48.956;9.076;2023-11-21T04:05:46;4.63;;;1.63;;
63714;SDS011;49858;48.956;9.076;2023-11-21T04:08:15;2.67;;;1.77;;
63714;SDS011;49858;48.956;9.076;2023-11-21T04:10:43;2.08;;;1.35;;
63714;SDS011;49858;48.956;9.076;2023-11-21T04:13:10;5.63;;;1.35;;
63714;SDS011;49858;48.956;9.076;2023-11-21T04:15:38;4.85;;;1.70;;
63714;SDS011;49858;48.956;9.076;2023-11-21T04:18:06;5.88;;;2.05;;
63714;SDS011;49858;48.956;9.076;2023-11-21T04:20:34;6.20;;;1.50;;
63714;SDS011;49858;48.956;9.076;2023-11-21T04:23:01;2.28;;;1.50;;
63714;SDS011;49858;48.956;9.076;2023-11-21T04:25:31;2.72;;;1.50;;
63714;SDS011;49858;48.956;9.076;2023-11-21T04:27:58;2.47;;;1.67;;
63714;SDS011;49858;48.956;9.076;2023-11-21T04:30:26;3.40;;;2.28;;
63714;SDS011;49858;48.956;9.076;2023-11-21T04:32:54;2.80;;;1.45;;
63714;SDS011;49858;48.956;9.076;2023-11-21T04:35:22;5.40;;;1.83;;
63714;SDS011;49858;48.956;9.076;2023-11-21T04:37:49;7.45;;;2.00;;
63714;SDS011;49858;48.956;9.076;2023-11-21T04:40:18;3.25;;;1.50;;
63714;SDS011;49858;48.956;9.076;2023-11-21T04:42:48;4.80;;;1.58;;
63714;SDS011;49858;48.956;9.076;2023-11-21T04:45:16;1.90;;;1.17;;
63714;SDS011;49858;48.956;9.076;2023-11-21T04:47:44;3.03;;;1.85;;
63714;SDS011;49858;48.956;9.076;2023-11-21T04:50:12;2.75;;;1.88;;
63714;SDS011;49858;48.956;9.076;2023-11-21T04:52:39;4.75;;;1.60;;
63714;SDS011;49858;48.956;9.076;2023-11-21T04:55:07;1.65;;;1.38;;
63714;SDS011;49858;48.956;9.076;2023-11-21T04:57:37;2.17;;;1.70;;
63714;SDS011;49858;48.956;9.076;2023-11-21T05:00:08;2.95;;;1.65;;
63714;SDS011;49858;48.956;9.076;2023-11-21T05:02:37;3.33;;;2.00;;
63714;SDS011;49858;48.956;9.076;2023-11-21T05:05:05;3.25;;;2.03;;
63714;SDS011;49858;48.956;9.076;2023-11-21T05:07:34;1.98;;;1.67;;
63714;SDS011;49858;48.956;9.076;2023-11-21T05:10:03;3.00;;;1.88;;
63714;SDS011;49858;48.956;9.076;2023-11-21T05:12:34;3.38;;;1.80;;
63714;SDS011;49858;48.956;9.076;2023-11-21T05:15:04;2.60;;;1.70;;
63714;SDS011;49858;48.956;9.076;2023-11-21T05:17:37;5.80;;;2.83;;
63714;SDS011;49858;48.956;9.076;2023-11-21T05:20:08;4.68;;;2.15;;
63714;SDS011;49858;48.956;9.076;2023-11-21T05:22:37;3.08;;;2.03;;
63714;SDS011;49858;48.956;9.076;2023-11-21T05:25:05;2.08;;;1.42;;
63714;SDS011;49858;48.956;9.076;2023-11-21T05:27:34;3.08;;;1.80;;
63714;SDS011;49858;48.956;9.076;2023-11-21T05:30:03;4.78;;;1.88;;
63714;SDS011;49858;48.956;9.076;2023-11-21T05:32:32;2.15;;;1.50;;
63714;SDS011;49858;48.956;9.076;2023-11-21T05:35:02;2.20;;;1.90;;
63714;SDS011;49858;48.956;9.076;2023-11-21T05:37:30;2.05;;;1.50;;
63714;SDS011;49858;48.956;9.076;2023-11-21T05:39:58;2.55;;;1.60;;
63714;SDS011;49858;48.956;9.076;2023-11-21T05:42:26;4.47;;;2.00;;
63714;SDS011;49858;48.956;9.076;2023-11-21T05:44:54;2.30;;;1.60;;
63714;SDS011;49858;48.956;9.076;2023-11-21T05:47:25;3.75;;;2.00;;
63714;SDS011;49858;48.956;9.076;2023-11-21T05:49:54;3.28;;;1.90;;
63714;SDS011;49858;48.956;9.076;2023-11-21T05:52:23;2.97;;;1.90;;
63714;SDS011;49858;48.956;9.076;2023-11-21T05:54:51;3.05;;;1.52;;
63714;SDS011;49858;48.956;9.076;2023-11-21T05:57:19;4.63;;;2.38;;
63714;SDS011;49858;48.956;9.076;2023-11-21T05:59:46;5.60;;;2.17;;
63714;SDS011;49858;48.956;9.076;2023-11-21T06:02:14;3.22;;;2.05;;
63714;SDS011;49858;48.956;9.076;2023-11-21T06:04:42;3.25;;;2.30;;
63714;SDS011;49858;48.956;9.076;2023-11-21T06:07:10;3.88;;;2.55;;
63714;SDS011;49858;48.956;9.076;2023-11-21T06:09:39;5.65;;;2.75;;
63714;SDS011;49858;48.956;9.076;2023-11-21T06:12:07;4.78;;;2.80;;
63714;SDS011;49858;48.956;9.076;2023-11-21T06:14:35;4.82;;;2.13;;
63714;SDS011;49858;48.956;9.076;2023-11-21T06:17:03;4.97;;;3.58;;
63714;SDS011;49858;48.956;9.076;2023-11-21T06:19:31;4.85;;;3.03;;
63714;SDS011;49858;48.956;9.076;2023-11-21T06:21:59;4.40;;;2.85;;
63714;SDS011;49858;48.956;9.076;2023-11-21T06:24:27;4.18;;;3.00;;
63714;SDS011;49858;48.956;9.076;2023-11-21T06:26:56;4.22;;;3.05;;
63714;SDS011;49858;48.956;9.076;2023-11-21T06:29:25;4.65;;;3.13;;
63714;SDS011;49858;48.956;9.076;2023-11-21T06:31:53;3.60;;;2.30;;
63714;SDS011;49858;48.956;9.076;2023-11-21T06:34:21;4.95;;;3.25;;
63714;SDS011;49858;48.956;9.076;2023-11-21T06:36:49;5.82;;;2.45;;
63714;SDS011;49858;48.956;9.076;2023-11-21T06:39:17;6.55;;;2.63;;
63714;SDS011;49858;48.956;9.076;2023-11-21T06:41:48;5.90;;;3.33;;
63714;SDS011;49858;48.956;9.076;2023-11-21T06:44:18;5.78;;;2.35;;
63714;SDS011;49858;48.956;9.076;2023-11-21T06:46:46;4.20;;;2.92;;
63714;SDS011;49858;48.956;9.076;2023-11-21T06:49:15;6.75;;;3.47;;
63714;SDS011;49858;48.956;9.076;2023-11-21T06:51:43;6.45;;;3.42;;
63714;SDS011;49858;48.956;9.076;2023-11-21T06:54:11;4.38;;;2.83;;
63714;SDS011;49858;48.956;9.076;2023-11-21T06:56:40;5.47;;;2.47;;
63714;SDS011;49858;48.956;9.076;2023-11-21T06:59:08;5.53;;;2.70;;
63714;SDS011;49858;48.956;9.076;2023-11-21T07:01:38;5.43;;;2.67;;
63714;SDS011;49858;48.956;9.076;2023-11-21T07:04:08;4.63;;;2.88;;
63714;SDS011;49858;48.956;9.076;2023-11-21T07:06:36;5.07;;;2.85;;
63714;SDS011;49858;48.956;9.076;2023-11-21T07:09:07;4.72;;;3.40;;
63714;SDS011;49858;48.956;9.076;2023-11-21T07:11:35;3.53;;;2.47;;
63714;SDS011;49858;48.956;9.076;2023-11-21T07:14:05;3.13;;;1.92;;
63714;SDS011;49858;48.956;9.076;2023-11-21T07:16:35;2.58;;;1.90;;
63714;SDS011;49858;48.956;9.076;2023-11-21T07:19:05;3.70;;;2.30;;
63714;SDS011;49858;48.956;9.076;2023-11-21T07:21:33;4.75;;;2.72;;
63714;SDS011;49858;48.956;9.076;2023-11-21T07:24:02;4.45;;;3.10;;
63714;SDS011;49858;48.956;9.076;2023-11-21T07:26:32;3.75;;;2.47;;
63714;SDS011;49858;48.956;9.076;2023-11-21T07:29:01;2.80;;;2.30;;
63714;SDS011;49858;48.956;9.076;2023-11-21T07:31:29;4.53;;;2.40;;
63714;SDS011;49858;48.956;9.076;2023-11-21T07:34:00;3.33;;;2.30;;
63714;SDS011;49858;48.956;9.076;2023-11-21T07:36:30;4.63;;;2.83;;
63714;SDS011;49858;48.956;9.076;2023-11-21T07:38:58;5.18;;;2.55;;
63714;SDS011;49858;48.956;9.076;2023-11-21T07:41:28;4.10;;;2.33;;
63714;SDS011;49858;48.956;9.076;2023-11-21T07:43:57;5.63;;;3.08;;
63714;SDS011;49858;48.956;9.076;2023-11-21T07:46:25;5.20;;;2.80;;
63714;SDS011;49858;48.956;9.076;2023-11-21T07:48:54;5.97;;;2.90;;
63714;SDS011;49858;48.956;9.076;2023-11-21T07:51:22;3.50;;;2.28;;
63714;SDS011;49858;48.956;9.076;2023-11-21T07:53:51;6.57;;;4.03;;
63714;SDS011;49858;48.956;9.076;2023-11-21T07:56:19;3.58;;;2.13;;
63714;SDS011;49858;48.956;9.076;2023-11-21T07:58:46;2.25;;;1.83;;
63714;SDS011;49858;48.956;9.076;2023-11-21T08:01:17;5.05;;;3.47;;
63714;SDS011;49858;48.956;9.076;2023-11-21T08:03:47;3.72;;;1.92;;
63714;SDS011;49858;48.956;9.076;2023-11-21T08:06:18;6.63;;;3.47;;
63714;SDS011;49858;48.956;9.076;2023-11-21T08:08:46;4.22;;;2.25;;
63714;SDS011;49858;48.956;9.076;2023-11-21T08:11:15;6.55;;;3.00;;
63714;SDS011;49858;48.956;9.076;2023-11-21T08:13:45;5.13;;;3.60;;
63714;SDS011;49858;48.956;9.076;2023-11-21T08:16:14;3.08;;;2.22;;
63714;SDS011;49858;48.956;9.076;2023-11-21T08:18:43;5.47;;;3.65;;
63714;SDS011;49858;48.956;9.076;2023-11-21T08:21:12;7.63;;;3.55;;
63714;SDS011;49858;48.956;9.076;2023-11-21T08:23:40;4.90;;;2.53;;
63714;SDS011;49858;48.956;9.076;2023-11-21T08:26:08;6.00;;;3.50;;
63714;SDS011;49858;48.956;9.076;2023-11-21T08:28:37;3.60;;;2.35;;
63714;SDS011;49858;48.956;9.076;2023-11-21T08:31:05;6.93;;;3.15;;
63714;SDS011;49858;48.956;9.076;2023-11-21T08:33:33;3.75;;;2.13;;
63714;SDS011;49858;48.956;9.076;2023-11-21T08:36:01;1.73;;;1.40;;
63714;SDS011;49858;48.956;9.076;2023-11-21T08:38:35;2.17;;;1.50;;
63714;SDS011;49858;48.956;9.076;2023-11-21T08:41:04;5.60;;;2.70;;
63714;SDS011;49858;48.956;9.076;2023-11-21T08:43:35;3.58;;;1.77;;
63714;SDS011;49858;48.956;9.076;2023-11-21T08:46:07;3.70;;;1.75;;
63714;SDS011;49858;48.956;9.076;2023-11-21T08:48:36;3.42;;;1.83;;
63714;SDS011;49858;48.956;9.076;2023-11-21T08:51:04;1.15;;;1.05;;
63714;SDS011;49858;48.956;9.076;2023-11-21T08:53:32;1.20;;;0.88;;
63714;SDS011;49858;48.956;9.076;2023-11-21T08:56:00;6.38;;;2.90;;
63714;SDS011;49858;48.956;9.076;2023-11-21T08:58:28;4.53;;;2.53;;
63714;SDS011;49858;48.956;9.076;2023-11-21T09:00:57;4.85;;;2.10;;
63714;SDS011;49858;48.956;9.076;2023-11-21T09:03:26;1.80;;;1.65;;
63714;SDS011;49858;48.956;9.076;2023-11-21T09:05:54;3.03;;;1.50;;
63714;SDS011;49858;48.956;9.076;2023-11-21T09:08:22;1.25;;;1.08;;
63714;SDS011;49858;48.956;9.076;2023-11-21T09:10:50;2.00;;;1.33;;
63714;SDS011;49858;48.956;9.076;2023-11-21T09:13:18;2.58;;;1.38;;
63714;SDS011;49858;48.956;9.076;2023-11-21T09:15:48;4.07;;;1.60;;
63714;SDS011;49858;48.956;9.076;2023-11-21T09:18:16;5.57;;;2.22;;
63714;SDS011;49858;48.956;9.076;2023-11-21T09:20:45;2.45;;;1.40;;
63714;SDS011;49858;48.956;9.076;2023-11-21T09:23:13;2.28;;;1.40;;
63714;SDS011;49858;48.956;9.076;2023-11-21T09:25:41;3.17;;;2.33;;
63714;SDS011;49858;48.956;9.076;2023-11-21T09:28:12;4.10;;;2.65;;
63714;SDS011;49858;48.956;9.076;2023-11-21T09:30:40;7.43;;;2.33;;
63714;SDS011;49858;48.956;9.076;2023-11-21T09:33:08;6.20;;;3.20;;
63714;SDS011;49858;48.956;9.076;2023-11-21T09:35:37;7.25;;;3.58;;
63714;SDS011;49858;48.956;9.076;2023-11-21T09:38:07;7.90;;;3.50;;
63714;SDS011;49858;48.956;9.076;2023-11-21T09:40:37;6.38;;;3.40;;
63714;SDS011;49858;48.956;9.076;2023-11-21T09:43:06;4.55;;;3.15;;
63714;SDS011;49858;48.956;9.076;2023-11-21T09:45:43;4.28;;;1.98;;
63714;SDS011;49858;48.956;9.076;2023-11-21T09:48:13;6.03;;;3.42;;
63714;SDS011;49858;48.956;9.076;2023-11-21T09:50:42;2.33;;;1.83;;
63714;SDS011;49858;48.956;9.076;2023-11-21T09:53:17;3.78;;;2.33;;
63714;SDS011;49858;48.956;9.076;2023-11-21T09:55:48;2.75;;;2.03;;
63714;SDS011;49858;48.956;9.076;2023-11-21T09:58:18;6.95;;;3.85;;
63714;SDS011;49858;48.956;9.076;2023-11-21T10:00:48;3.22;;;2.00;;
63714;SDS011;49858;48.956;9.076;2023-11-21T10:03:20;4.82;;;2.10;;
63714;SDS011;49858;48.956;9.076;2023-11-21T10:05:48;2.15;;;1.85;;
63714;SDS011;49858;48.956;9.076;2023-11-21T10:08:21;4.78;;;3.08;;
63714;SDS011;49858;48.956;9.076;2023-11-21T10:11:01;3.13;;;1.88;;
63714;SDS011;49858;48.956;9.076;2023-11-21T10:13:33;4.78;;;3.35;;
63714;SDS011;49858;48.956;9.076;2023-11-21T10:16:01;3.00;;;2.15;;
63714;SDS011;49858;48.956;9.076;2023-11-21T10:18:32;4.60;;;2.95;;
63714;SDS011;49858;48.956;9.076;2023-11-21T10:21:01;4.00;;;2.25;;
63714;SDS011;49858;48.956;9.076;2023-11-21T10:23:31;2.05;;;1.40;;
63714;SDS011;49858;48.956;9.076;2023-11-21T10:25:59;3.42;;;2.42;;
63714;SDS011;49858;48.956;9.076;2023-11-21T10:28:40;3.25;;;2.05;;
63714;SDS011;49858;48.956;9.076;2023-11-21T10:31:08;4.97;;;3.08;;
63714;SDS011;49858;48.956;9.076;2023-11-21T10:33:36;4.50;;;3.33;;
63714;SDS011;49858;48.956;9.076;2023-11-21T10:36:04;3.67;;;2.22;;
63714;SDS011;49858;48.956;9.076;2023-11-21T10:38:35;1.08;;;0.98;;
63714;SDS011;49858;48.956;9.076;2023-11-21T10:41:15;4.25;;;2.03;;
63714;SDS011;49858;48.956;9.076;2023-11-21T10:43:43;2.28;;;2.05;;
63714;SDS011;49858;48.956;9.076;2023-11-21T10:46:11;1.30;;;0.88;;
63714;SDS011;49858;48.956;9.076;2023-11-21T10:49:56;3.63;;;1.83;;
63714;SDS011;49858;48.956;9.076;2023-11-21T10:52:26;4.15;;;2.15;;
63714;SDS011;49858;48.956;9.076;2023-11-21T10:54:58;3.75;;;2.47;;
63714;SDS011;49858;48.956;9.076;2023-11-21T10:57:26;0.90;;;0.77;;
63714;SDS011;49858;48.956;9.076;2023-11-21T10:59:54;4.10;;;2.75;;
63714;SDS011;49858;48.956;9.076;2023-11-21T11:02:24;3.15;;;1.83;;
63714;SDS011;49858;48.956;9.076;2023-11-21T11:04:55;5.00;;;2.58;;
63714;SDS011;49858;48.956;9.076;2023-11-21T11:07:25;3.72;;;2.13;;
63714;SDS011;49858;48.956;9.076;2023-11-21T11:09:54;3.67;;;2.42;;
63714;SDS011;49858;48.956;9.076;2023-11-21T11:12:24;4.20;;;2.40;;
63714;SDS011;49858;48.956;9.076;2023-11-21T11:14:53;3.25;;;2.47;;
63714;SDS011;49858;48.956;9.076;2023-11-21T11:17:23;4.07;;;2.55;;
63714;SDS011;49858;48.956;9.076;2023-11-21T11:19:52;2.13;;;1.80;;
63714;SDS011;49858;48.956;9.076;2023-11-21T11:22:26;3.33;;;2.45;;
63714;SDS011;49858;48.956;9.076;2023-11-21T11:28:01;1.25;;;1.15;;
63714;SDS011;49858;48.956;9.076;2023-11-21T11:30:42;2.17;;;1.63;;
63714;SDS011;49858;48.956;9.076;2023-11-21T11:33:28;3.47;;;2.53;;
63714;SDS011;49858;48.956;9.076;2023-11-21T11:36:05;4.25;;;3.03;;
63714;SDS011;49858;48.956;9.076;2023-11-21T11:38:38;6.13;;;3.53;;
63714;SDS011;49858;48.956;9.076;2023-11-21T11:41:06;3.92;;;2.80;;
63714;SDS011;49858;48.956;9.076;2023-11-21T11:43:37;3.28;;;2.25;;
63714;SDS011;49858;48.956;9.076;2023-11-21T11:46:11;1.98;;;1.55;;
63714;SDS011;49858;48.956;9.076;2023-11-21T11:48:40;4.18;;;2.55;;
63714;SDS011;49858;48.956;9.076;2023-11-21T11:51:12;4.07;;;2.65;;
63714;SDS011;49858;48.956;9.076;2023-11-21T11:53:47;3.28;;;2.15;;
63714;SDS011;49858;48.956;9.076;2023-11-21T11:56:22;3.83;;;2.05;;
63714;SDS011;49858;48.956;9.076;2023-11-21T11:58:53;3.42;;;2.40;;
63714;SDS011;49858;48.956;9.076;2023-11-21T12:01:24;4.45;;;2.95;;
63714;SDS011;49858;48.956;9.076;2023-11-21T12:07:01;4.47;;;2.88;;
63714;SDS011;49858;48.956;9.076;2023-11-21T12:12:00;5.53;;;3.60;;
63714;SDS011;49858;48.956;9.076;2023-11-21T12:14:33;6.10;;;3.38;;
63714;SDS011;49858;48.956;9.076;2023-11-21T12:17:03;4.25;;;2.85;;
63714;SDS011;49858;48.956;9.076;2023-11-21T12:19:32;6.28;;;3.22;;
63714;SDS011;49858;48.956;9.076;2023-11-21T12:21:59;5.40;;;3.15;;
63714;SDS011;49858;48.956;9.076;2023-11-21T12:24:27;3.10;;;1.80;;
63714;SDS011;49858;48.956;9.076;2023-11-21T12:26:55;2.88;;;1.77;;
63714;SDS011;49858;48.956;9.076;2023-11-21T12:29:23;7.18;;;2.30;;
63714;SDS011;49858;48.956;9.076;2023-11-21T12:31:52;4.43;;;2.35;;
63714;SDS011;49858;48.956;9.076;2023-11-21T12:34:20;2.95;;;1.95;;
63714;SDS011;49858;48.956;9.076;2023-11-21T12:36:50;2.53;;;1.77;;
63714;SDS011;49858;48.956;9.076;2023-11-21T12:39:20;4.25;;;2.53;;
63714;SDS011;49858;48.956;9.076;2023-11-21T12:41:49;3.38;;;2.05;;
63714;SDS011;49858;48.956;9.076;2023-11-21T12:44:17;3.45;;;2.08;;
63714;SDS011;49858;48.956;9.076;2023-11-21T12:46:45;3.25;;;2.22;;
63714;SDS011;49858;48.956;9.076;2023-11-21T12:49:14;5.38;;;2.10;;
63714;SDS011;49858;48.956;9.076;2023-11-21T12:51:45;3.35;;;1.95;;
63714;SDS011;49858;48.956;9.076;2023-11-21T12:54:13;3.13;;;2.20;;
63714;SDS011;49858;48.956;9.076;2023-11-21T12:56:44;2.75;;;2.13;;
63714;SDS011;49858;48.956;9.076;2023-11-21T12:59:15;5.30;;;2.72;;
63714;SDS011;49858;48.956;9.076;2023-11-21T13:01:45;4.35;;;2.50;;
63714;SDS011;49858;48.956;9.076;2023-11-21T13:04:15;3.00;;;2.25;;
63714;SDS011;49858;48.956;9.076;2023-11-21T13:06:43;6.90;;;2.85;;
63714;SDS011;49858;48.956;9.076;2023-11-21T13:09:13;3.38;;;2.03;;
63714;SDS011;49858;48.956;9.076;2023-11-21T13:11:48;3.78;;;2.33;;
63714;SDS011;49858;48.956;9.076;2023-11-21T13:14:16;4.05;;;2.40;;
63714;SDS011;49858;48.956;9.076;2023-11-21T13:16:44;7.40;;;2.85;;
63714;SDS011;49858;48.956;9.076;2023-11-21T13:19:14;6.90;;;2.53;;
63714;SDS011;49858;48.956;9.076;2023-11-21T13:21:42;4.50;;;2.83;;
63714;SDS011;49858;48.956;9.076;2023-11-21T13:24:10;5.82;;;2.47;;
63714;SDS011;49858;48.956;9.076;2023-11-21T13:26:41;5.65;;;2.80;;
63714;SDS011;49858;48.956;9.076;2023-11-21T13:29:12;3.88;;;2.58;;
63714;SDS011;49858;48.956;9.076;2023-11-21T13:31:40;6.45;;;2.35;;
63714;SDS011;49858;48.956;9.076;2023-11-21T13:34:08;4.57;;;2.42;;
63714;SDS011;49858;48.956;9.076;2023-11-21T13:36:47;5.30;;;2.95;;
63714;SDS011;49858;48.956;9.076;2023-11-21T13:39:18;4.25;;;2.80;;
63714;SDS011;49858;48.956;9.076;2023-11-21T13:41:47;4.72;;;3.08;;
63714;SDS011;49858;48.956;9.076;2023-11-21T13:44:21;3.53;;;2.30;;
63714;SDS011;49858;48.956;9.076;2023-11-21T13:46:58;5.07;;;2.67;;
63714;SDS011;49858;48.956;9.076;2023-11-21T13:49:26;5.68;;;3.60;;
63714;SDS011;49858;48.956;9.076;2023-11-21T13:51:58;3.80;;;2.67;;
63714;SDS011;49858;48.956;9.076;2023-11-21T13:54:29;7.97;;;3.30;;
63714;SDS011;49858;48.956;9.076;2023-11-21T13:56:57;3.90;;;2.65;;
63714;SDS011;49858;48.956;9.076;2023-11-21T13:59:26;6.88;;;3.30;;
63714;SDS011;49858;48.956;9.076;2023-11-21T14:01:56;8.10;;;2.88;;
63714;SDS011;49858;48.956;9.076;2023-11-21T14:04:27;2.65;;;1.98;;
63714;SDS011;49858;48.956;9.076;2023-11-21T14:07:24;4.53;;;2.20;;
63714;SDS011;49858;48.956;9.076;2023-11-21T14:10:02;3.55;;;2.38;;
63714;SDS011;49858;48.956;9.076;2023-11-21T14:12:31;3.35;;;1.67;;
63714;SDS011;49858;48.956;9.076;2023-11-21T14:15:05;3.65;;;2.08;;
63714;SDS011;49858;48.956;9.076;2023-11-21T14:17:35;4.93;;;2.92;;
63714;SDS011;49858;48.956;9.076;2023-11-21T14:20:06;3.55;;;2.50;;
63714;SDS011;49858;48.956;9.076;2023-11-21T14:22:43;6.70;;;3.72;;
63714;SDS011;49858;48.956;9.076;2023-11-21T14:25:11;8.90;;;2.90;;
63714;SDS011;49858;48.956;9.076;2023-11-21T14:27:40;8.52;;;4.22;;
63714;SDS011;49858;48.956;9.076;2023-11-21T14:30:09;7.35;;;4.18;;
63714;SDS011;49858;48.956;9.076;2023-11-21T14:32:39;8.40;;;3.90;;
63714;SDS011;49858;48.956;9.076;2023-11-21T14:35:08;8.02;;;4.13;;
63714;SDS011;49858;48.956;9.076;2023-11-21T14:37:36;6.60;;;3.75;;
63714;SDS011;49858;48.956;9.076;2023-11-21T14:40:07;8.77;;;4.97;;
63714;SDS011;49858;48.956;9.076;2023-11-21T14:42:36;9.05;;;4.57;;
63714;SDS011;49858;48.956;9.076;2023-11-21T14:45:06;8.30;;;3.97;;
63714;SDS011;49858;48.956;9.076;2023-11-21T14:47:38;6.30;;;3.85;;
63714;SDS011;49858;48.956;9.076;2023-11-21T14:50:11;13.32;;;4.45;;
63714;SDS011;49858;48.956;9.076;2023-11-21T14:52:53;17.27;;;7.13;;
63714;SDS011;49858;48.956;9.076;2023-11-21T14:55:23;8.50;;;3.90;;
63714;SDS011;49858;48.956;9.076;2023-11-21T14:57:57;8.93;;;4.00;;
63714;SDS011;49858;48.956;9.076;2023-11-21T15:00:30;7.75;;;4.47;;
63714;SDS011;49858;48.956;9.076;2023-11-21T15:03:10;8.23;;;4.22;;
63714;SDS011;49858;48.956;9.076;2023-11-21T15:05:53;7.70;;;4.30;;
63714;SDS011;49858;48.956;9.076;2023-11-21T15:08:20;6.80;;;4.30;;
63714;SDS011;49858;48.956;9.076;2023-11-21T15:10:58;10.52;;;4.47;;